Time;durP1;ratioP1;P1;durP2;ratioP2;P2;SDS_P1;SDS_P2;PMS_P1;PMS_P2;Temp;Humidity;BMP_temperature;BMP_pressure;BME280_temperature;BME280_humidity;BME280_pressure;Samples;Min_cycle;Max_cycle;Signal;HPM_P1;HPM_P2
2023/04/18 00:00:36;;;;;;;;;71.75;56.25;;;;;;;;5071028;28;11491;-87
2023/04/18 00:03:05;;;;;;;;;72.50;58.75;;;;;;;;5073027;28;11563;-84
2023/04/18 00:05:32;;;;;;;;;76.25;59.00;;;;;;;;5073115;28;11497;-84
2023/04/18 00:08:00;;;;;;;;;76.25;61.00;;;;;;;;5073035;28;11544;-88
2023/04/18 00:10:27;;;;;;;;;76.00;60.25;;;;;;;;5072111;28;11605;-82
2023/04/18 00:12:54;;;;;;;;;77.75;62.75;;;;;;;;5069775;28;11643;-85
2023/04/18 00:15:22;;;;;;;;;74.25;59.00;;;;;;;;5071390;28;11636;-81
2023/04/18 00:17:55;;;;;;;;;76.00;59.50;;;;;;;;5071578;28;11529;-86
2023/04/18 00:20:25;;;;;;;;;80.25;64.00;;;;;;;;5060391;28;11509;-87
2023/04/18 00:22:53;;;;;;;;;78.00;63.00;;;;;;;;5071489;28;11549;-85
2023/04/18 00:25:21;;;;;;;;;78.50;64.25;;;;;;;;5071611;28;11521;-88
2023/04/18 00:27:48;;;;;;;;;73.25;57.75;;;;;;;;5070959;28;11639;-88
2023/04/18 00:30:15;;;;;;;;;78.50;62.25;;;;;;;;5072114;28;11637;-85
2023/04/18 00:32:42;;;;;;;;;75.25;59.50;;;;;;;;5072988;28;11536;-86
2023/04/18 00:35:10;;;;;;;;;78.50;60.25;;;;;;;;5073910;28;11573;-84
2023/04/18 00:37:41;;;;;;;;;77.00;60.50;;;;;;;;5071359;28;11513;-85
2023/04/18 00:40:09;;;;;;;;;77.25;59.75;;;;;;;;5071362;28;11549;-83
2023/04/18 00:42:36;;;;;;;;;73.75;57.50;;;;;;;;5071645;28;12394;-84
2023/04/18 00:45:04;;;;;;;;;78.00;60.00;;;;;;;;5071235;28;11520;-90
2023/04/18 00:47:31;;;;;;;;;81.00;61.50;;;;;;;;5070694;28;11512;-85
2023/04/18 00:49:59;;;;;;;;;80.00;64.50;;;;;;;;5070669;28;11678;-91
2023/04/18 00:52:27;;;;;;;;;78.00;63.25;;;;;;;;5071077;28;11653;-91
2023/04/18 00:54:56;;;;;;;;;81.50;63.00;;;;;;;;5070876;28;11774;-83
2023/04/18 00:57:23;;;;;;;;;64.75;54.00;;;;;;;;5071270;28;11547;-82
2023/04/18 00:59:50;;;;;;;;;78.25;65.00;;;;;;;;5103928;28;11510;-88
2023/04/18 01:02:18;;;;;;;;;77.25;62.00;;;;;;;;5073095;28;11460;-88
2023/04/18 01:04:45;;;;;;;;;81.75;64.25;;;;;;;;5072694;28;11534;-88
2023/04/18 01:07:12;;;;;;;;;75.00;60.50;;;;;;;;5069818;28;11634;-89
2023/04/18 01:09:40;;;;;;;;;82.00;63.75;;;;;;;;5069738;28;11623;-85
2023/04/18 01:12:09;;;;;;;;;82.00;62.50;;;;;;;;5057405;28;11522;-89
2023/04/18 01:14:36;;;;;;;;;73.50;58.00;;;;;;;;5069818;28;11518;-90
2023/04/18 01:17:06;;;;;;;;;81.50;66.00;;;;;;;;5075238;28;11552;-83
2023/04/18 01:19:34;;;;;;;;;79.50;64.00;;;;;;;;5081029;28;11553;-88
2023/04/18 01:22:02;;;;;;;;;82.50;63.50;;;;;;;;5081190;28;11540;-94
2023/04/18 01:24:31;;;;;;;;;78.25;62.25;;;;;;;;5073320;28;11657;-91
2023/04/18 01:27:01;;;;;;;;;83.50;67.75;;;;;;;;5083397;28;11521;-85
2023/04/18 01:29:29;;;;;;;;;79.75;62.00;;;;;;;;5082243;28;11546;-92
2023/04/18 01:31:56;;;;;;;;;82.00;67.50;;;;;;;;5083494;28;11497;-92
2023/04/18 01:34:23;;;;;;;;;80.75;66.00;;;;;;;;5078456;28;11640;-93
2023/04/18 01:36:52;;;;;;;;;73.50;58.50;;;;;;;;5074847;28;11661;-91
2023/04/18 01:39:19;;;;;;;;;78.75;61.25;;;;;;;;5074349;28;11578;-83
2023/04/18 01:41:48;;;;;;;;;77.75;61.25;;;;;;;;5073033;28;11626;-85
2023/04/18 01:44:15;;;;;;;;;82.50;67.25;;;;;;;;5071252;28;11637;-83
2023/04/18 01:46:42;;;;;;;;;81.00;64.00;;;;;;;;5072984;28;11520;-83
2023/04/18 01:49:10;;;;;;;;;81.50;62.25;;;;;;;;5057706;28;11665;-83
2023/04/18 01:51:38;;;;;;;;;78.25;60.25;;;;;;;;5070493;28;11521;-82
2023/04/18 01:54:05;;;;;;;;;79.00;60.00;;;;;;;;5069261;28;11502;-86
2023/04/18 01:56:33;;;;;;;;;78.75;62.00;;;;;;;;5069950;28;11628;-83
2023/04/18 01:59:01;;;;;;;;;77.75;60.50;;;;;;;;5070262;28;11528;-83
2023/04/18 02:01:29;;;;;;;;;75.75;58.25;;;;;;;;5070325;28;11607;-84
2023/04/18 02:03:56;;;;;;;;;83.25;68.00;;;;;;;;5069529;28;12290;-83
2023/04/18 02:06:25;;;;;;;;;84.25;64.25;;;;;;;;5069948;28;11611;-84
2023/04/18 02:08:52;;;;;;;;;69.00;54.50;;;;;;;;5069208;28;11538;-85
2023/04/18 02:11:19;;;;;;;;;77.75;62.50;;;;;;;;5069277;28;11620;-84
2023/04/18 02:13:46;;;;;;;;;78.75;60.25;;;;;;;;5068882;28;11552;-85
2023/04/18 02:16:15;;;;;;;;;78.00;63.25;;;;;;;;5068826;28;12301;-89
2023/04/18 02:18:43;;;;;;;;;72.75;58.50;;;;;;;;5069098;28;11596;-83
2023/04/18 02:21:10;;;;;;;;;77.25;59.00;;;;;;;;5068328;28;11568;-83
2023/04/18 02:23:38;;;;;;;;;75.75;60.75;;;;;;;;5068413;28;11509;-82
2023/04/18 02:26:05;;;;;;;;;75.75;59.75;;;;;;;;5069209;28;11581;-82
2023/04/18 02:28:33;;;;;;;;;74.50;58.75;;;;;;;;5068814;28;11642;-83
2023/04/18 02:31:00;;;;;;;;;75.75;59.00;;;;;;;;5069848;28;12220;-85
2023/04/18 02:33:29;;;;;;;;;78.75;61.00;;;;;;;;5081283;28;11532;-90
2023/04/18 02:35:56;;;;;;;;;75.00;59.00;;;;;;;;5068638;28;11503;-82
2023/04/18 02:38:24;;;;;;;;;82.00;62.25;;;;;;;;5075156;28;11610;-88
2023/04/18 02:40:51;;;;;;;;;75.25;59.00;;;;;;;;5074815;28;11506;-86
2023/04/18 02:43:18;;;;;;;;;79.00;65.25;;;;;;;;5085472;28;11487;-90
2023/04/18 02:45:45;;;;;;;;;71.50;57.00;;;;;;;;5072782;28;11535;-89
2023/04/18 02:48:12;;;;;;;;;79.50;61.75;;;;;;;;5092237;28;11632;-84
2023/04/18 02:50:41;;;;;;;;;75.25;59.00;;;;;;;;5091498;28;11529;-89
2023/04/18 02:53:08;;;;;;;;;73.50;59.00;;;;;;;;5060741;28;11619;-85
2023/04/18 02:55:36;;;;;;;;;78.00;61.00;;;;;;;;5077060;28;11559;-83
2023/04/18 02:58:03;;;;;;;;;79.00;60.25;;;;;;;;5077352;28;11535;-88
2023/04/18 03:00:31;;;;;;;;;69.50;55.25;;;;;;;;5061360;28;11563;-88
2023/04/18 03:02:58;;;;;;;;;82.50;69.00;;;;;;;;5072080;28;11565;-88
2023/04/18 03:05:25;;;;;;;;;77.00;62.00;;;;;;;;5072719;28;11670;-85
2023/04/18 03:07:54;;;;;;;;;77.25;60.50;;;;;;;;5072902;28;11631;-90
2023/04/18 03:10:21;;;;;;;;;73.00;58.00;;;;;;;;5072546;28;11641;-83
2023/04/18 03:12:48;;;;;;;;;82.25;61.50;;;;;;;;5072713;28;11632;-92
2023/04/18 03:15:15;;;;;;;;;83.75;66.00;;;;;;;;5084797;28;11648;-86
2023/04/18 03:17:43;;;;;;;;;86.00;70.00;;;;;;;;5072310;28;11506;-88
2023/04/18 03:20:11;;;;;;;;;80.25;61.75;;;;;;;;5072597;28;11660;-90
2023/04/18 03:22:38;;;;;;;;;79.25;63.50;;;;;;;;5076785;28;11700;-89
2023/04/18 03:25:08;;;;;;;;;78.00;63.00;;;;;;;;5083587;28;11555;-86
2023/04/18 03:27:36;;;;;;;;;74.75;58.50;;;;;;;;5079345;28;11609;-85
2023/04/18 03:30:04;;;;;;;;;78.25;59.75;;;;;;;;5084368;28;11547;-90
2023/04/18 03:32:33;;;;;;;;;73.75;58.50;;;;;;;;5078195;28;11509;-93
2023/04/18 03:35:01;;;;;;;;;77.00;61.75;;;;;;;;5074875;28;11543;-87
2023/04/18 03:37:28;;;;;;;;;75.75;59.25;;;;;;;;5072718;28;11506;-83
2023/04/18 03:39:58;;;;;;;;;81.75;61.75;;;;;;;;5072955;28;11518;-87
2023/04/18 03:42:27;;;;;;;;;78.25;60.50;;;;;;;;5077581;28;11677;-84
2023/04/18 03:44:55;;;;;;;;;73.75;58.75;;;;;;;;5059084;28;11561;-87
2023/04/18 03:47:22;;;;;;;;;72.25;56.50;;;;;;;;5070224;28;11640;-86
2023/04/18 03:49:49;;;;;;;;;75.25;59.75;;;;;;;;5071159;28;11568;-87
2023/04/18 03:52:18;;;;;;;;;76.00;58.75;;;;;;;;5073738;28;11514;-85
2023/04/18 03:54:46;;;;;;;;;77.25;57.75;;;;;;;;5072793;28;11962;-86
2023/04/18 03:57:13;;;;;;;;;74.00;57.00;;;;;;;;5072001;28;12301;-84
2023/04/18 03:59:42;;;;;;;;;68.00;56.25;;;;;;;;5070424;28;12335;-86
2023/04/18 04:02:09;;;;;;;;;71.25;56.75;;;;;;;;5069689;28;11442;-84
2023/04/18 04:04:37;;;;;;;;;74.00;59.25;;;;;;;;5071337;28;11611;-86
2023/04/18 04:07:04;;;;;;;;;73.75;58.75;;;;;;;;5072139;28;11513;-85
2023/04/18 04:09:31;;;;;;;;;70.50;57.25;;;;;;;;5070653;28;11550;-84
2023/04/18 04:11:58;;;;;;;;;77.25;61.50;;;;;;;;5071680;28;11489;-84
2023/04/18 04:14:26;;;;;;;;;69.25;56.00;;;;;;;;5070296;28;11517;-88
2023/04/18 04:16:55;;;;;;;;;74.00;59.75;;;;;;;;5071894;28;11558;-84
2023/04/18 04:19:22;;;;;;;;;73.00;57.75;;;;;;;;5071295;28;11621;-83
2023/04/18 04:21:49;;;;;;;;;70.75;55.50;;;;;;;;5072119;28;11520;-83
2023/04/18 04:24:16;;;;;;;;;76.00;57.25;;;;;;;;5073098;28;11492;-88
2023/04/18 04:26:43;;;;;;;;;79.75;60.50;;;;;;;;5053976;28;11514;-89
2023/04/18 04:29:12;;;;;;;;;78.50;61.00;;;;;;;;5070687;28;11658;-89
2023/04/18 04:31:39;;;;;;;;;71.50;56.75;;;;;;;;5069690;28;11455;-83
2023/04/18 04:34:08;;;;;;;;;71.50;56.25;;;;;;;;5070152;28;11572;-87
2023/04/18 04:36:36;;;;;;;;;75.75;59.00;;;;;;;;5070136;28;11482;-87
2023/04/18 04:39:04;;;;;;;;;80.75;61.00;;;;;;;;5070079;28;11587;-89
2023/04/18 04:41:31;;;;;;;;;75.00;59.75;;;;;;;;5069825;28;11519;-90
2023/04/18 04:44:00;;;;;;;;;74.00;59.00;;;;;;;;5070361;28;11534;-88
2023/04/18 04:46:29;;;;;;;;;72.25;57.50;;;;;;;;5070510;28;11529;-84
2023/04/18 04:48:56;;;;;;;;;72.00;56.75;;;;;;;;5072430;28;11500;-85
2023/04/18 04:51:26;;;;;;;;;78.50;60.50;;;;;;;;5073474;28;11514;-86
2023/04/18 04:53:54;;;;;;;;;73.75;59.00;;;;;;;;5073469;28;11652;-86
2023/04/18 04:56:21;;;;;;;;;71.25;56.50;;;;;;;;5069835;28;11517;-86
2023/04/18 04:58:49;;;;;;;;;73.50;58.50;;;;;;;;5070160;28;11612;-84
2023/04/18 05:01:16;;;;;;;;;77.25;59.50;;;;;;;;5069618;28;11435;-88
2023/04/18 05:03:44;;;;;;;;;81.00;61.25;;;;;;;;5068918;28;11515;-88
2023/04/18 05:06:11;;;;;;;;;78.50;63.00;;;;;;;;5075957;28;11524;-87
2023/04/18 05:08:40;;;;;;;;;77.50;62.00;;;;;;;;5087926;28;11485;-88
2023/04/18 05:11:07;;;;;;;;;75.00;60.00;;;;;;;;5089274;28;11509;-88
2023/04/18 05:13:34;;;;;;;;;70.00;55.25;;;;;;;;5085732;28;11561;-88
2023/04/18 05:16:02;;;;;;;;;67.50;53.50;;;;;;;;5062369;28;11595;-87
2023/04/18 05:18:29;;;;;;;;;75.00;59.50;;;;;;;;5073768;28;11473;-88
2023/04/18 05:21:01;;;;;;;;;76.75;59.50;;;;;;;;5087562;28;11565;-87
2023/04/18 05:23:29;;;;;;;;;75.50;60.25;;;;;;;;5078440;28;11528;-84
2023/04/18 05:26:00;;;;;;;;;86.00;64.50;;;;;;;;5057448;28;11521;-91
2023/04/18 05:28:27;;;;;;;;;79.50;61.75;;;;;;;;5071334;28;11500;-88
2023/04/18 05:30:59;;;;;;;;;77.00;61.00;;;;;;;;5071442;28;11576;-87
2023/04/18 05:33:27;;;;;;;;;70.00;55.25;;;;;;;;5082079;28;11502;-87
2023/04/18 05:35:56;;;;;;;;;73.50;59.25;;;;;;;;5072511;28;11527;-86
2023/04/18 05:38:24;;;;;;;;;76.25;59.00;;;;;;;;5076559;28;11528;-83
2023/04/18 05:40:54;;;;;;;;;73.75;58.50;;;;;;;;5073433;28;11652;-89
2023/04/18 05:43:24;;;;;;;;;76.50;60.00;;;;;;;;5069736;28;11509;-84
2023/04/18 05:45:52;;;;;;;;;73.50;59.75;;;;;;;;5071889;28;11492;-83
2023/04/18 05:48:20;;;;;;;;;75.75;59.00;;;;;;;;5071064;28;11494;-86
2023/04/18 05:50:47;;;;;;;;;82.00;66.50;;;;;;;;5068359;28;11464;-75
2023/04/18 05:53:14;;;;;;;;;78.00;60.50;;;;;;;;5068535;28;11560;-73
2023/04/18 05:55:42;;;;;;;;;76.50;60.00;;;;;;;;5066487;28;11525;-71
2023/04/18 05:58:09;;;;;;;;;82.50;62.00;;;;;;;;5066467;28;12415;-71
2023/04/18 06:00:38;;;;;;;;;80.75;60.75;;;;;;;;5066006;28;11431;-72
2023/04/18 06:03:05;;;;;;;;;75.00;57.25;;;;;;;;5066677;28;11581;-72
2023/04/18 06:05:32;;;;;;;;;83.75;64.25;;;;;;;;5065832;28;11708;-72
2023/04/18 06:07:59;;;;;;;;;80.00;62.00;;;;;;;;5066677;28;11519;-70
2023/04/18 06:10:26;;;;;;;;;77.25;61.25;;;;;;;;5066250;28;11494;-73
2023/04/18 06:12:53;;;;;;;;;77.25;60.75;;;;;;;;5066604;28;11481;-71
2023/04/18 06:15:21;;;;;;;;;71.75;57.00;;;;;;;;5064691;28;11615;-70
2023/04/18 06:17:50;;;;;;;;;75.75;59.25;;;;;;;;5056317;28;11643;-73
2023/04/18 06:20:17;;;;;;;;;80.25;65.00;;;;;;;;5066100;28;11481;-79
2023/04/18 06:22:44;;;;;;;;;78.75;63.25;;;;;;;;5065850;28;11535;-73
2023/04/18 06:25:11;;;;;;;;;80.75;61.25;;;;;;;;5066212;28;11611;-75
2023/04/18 06:27:40;;;;;;;;;78.25;60.50;;;;;;;;5066426;28;11514;-70
2023/04/18 06:30:08;;;;;;;;;72.75;57.00;;;;;;;;5066078;28;12424;-71
2023/04/18 06:32:35;;;;;;;;;72.75;59.50;;;;;;;;5066756;28;12317;-75
2023/04/18 06:35:04;;;;;;;;;83.00;64.25;;;;;;;;5065709;28;11529;-70
2023/04/18 06:37:31;;;;;;;;;75.50;59.00;;;;;;;;5065642;28;11490;-69
2023/04/18 06:39:58;;;;;;;;;80.50;61.25;;;;;;;;5066490;28;11530;-72
2023/04/18 06:42:26;;;;;;;;;78.50;59.50;;;;;;;;5066300;28;11528;-73
2023/04/18 06:44:53;;;;;;;;;77.25;60.50;;;;;;;;5065800;28;11527;-71
2023/04/18 06:47:20;;;;;;;;;75.25;59.00;;;;;;;;5065996;28;11491;-71
2023/04/18 06:49:47;;;;;;;;;73.00;59.50;;;;;;;;5078745;28;11602;-71
2023/04/18 06:52:16;;;;;;;;;76.50;60.25;;;;;;;;5067102;28;11481;-73
2023/04/18 06:54:43;;;;;;;;;76.50;61.00;;;;;;;;5066313;28;11521;-72
2023/04/18 06:57:10;;;;;;;;;79.25;60.25;;;;;;;;5066797;28;11578;-74
2023/04/18 06:59:39;;;;;;;;;65.25;53.50;;;;;;;;5077976;28;11575;-76
2023/04/18 07:02:07;;;;;;;;;71.00;57.00;;;;;;;;5066888;28;11479;-73
2023/04/18 07:04:34;;;;;;;;;69.50;56.50;;;;;;;;5066164;28;11580;-75
2023/04/18 07:07:02;;;;;;;;;83.00;63.50;;;;;;;;5066331;28;12270;-75
2023/04/18 07:09:31;;;;;;;;;74.50;58.50;;;;;;;;5067798;28;11573;-76
2023/04/18 07:11:58;;;;;;;;;81.00;62.50;;;;;;;;5068805;28;11586;-74
2023/04/18 07:14:26;;;;;;;;;77.00;60.50;;;;;;;;5075285;28;11553;-74
2023/04/18 07:16:53;;;;;;;;;81.00;62.00;;;;;;;;5075213;28;11570;-76
2023/04/18 07:19:20;;;;;;;;;81.50;63.25;;;;;;;;5070209;28;12106;-72
2023/04/18 07:21:47;;;;;;;;;70.50;57.50;;;;;;;;5074469;28;12309;-72
2023/04/18 07:24:14;;;;;;;;;73.75;57.50;;;;;;;;5071552;28;11770;-72
2023/04/18 07:26:43;;;;;;;;;76.00;61.00;;;;;;;;5069475;28;11567;-73
2023/04/18 07:29:10;;;;;;;;;75.50;59.50;;;;;;;;5067906;28;11500;-71
2023/04/18 07:31:37;;;;;;;;;72.00;56.50;;;;;;;;5068957;28;11643;-74
2023/04/18 07:34:05;;;;;;;;;78.00;60.25;;;;;;;;5069528;28;11502;-74
2023/04/18 07:36:32;;;;;;;;;64.00;52.75;;;;;;;;5072281;28;11568;-73
2023/04/18 07:38:59;;;;;;;;;76.25;59.75;;;;;;;;5069585;28;11518;-71
2023/04/18 07:41:26;;;;;;;;;76.75;59.25;;;;;;;;5072263;28;11489;-70
2023/04/18 07:43:55;;;;;;;;;72.00;57.25;;;;;;;;5071305;28;11559;-74
2023/04/18 07:46:22;;;;;;;;;72.50;55.50;;;;;;;;5068760;28;11501;-74
2023/04/18 07:48:50;;;;;;;;;71.00;57.25;;;;;;;;5070836;28;11514;-71
2023/04/18 07:51:17;;;;;;;;;74.50;59.25;;;;;;;;5069131;28;11509;-77
2023/04/18 07:53:44;;;;;;;;;72.75;56.50;;;;;;;;5069345;28;11753;-71
2023/04/18 07:56:13;;;;;;;;;71.75;56.25;;;;;;;;5069595;28;11525;-74
2023/04/18 07:58:40;;;;;;;;;73.75;58.00;;;;;;;;5069269;28;12034;-70
2023/04/18 08:01:12;;;;;;;;;69.25;54.25;;;;;;;;5069221;28;11460;-72
2023/04/18 08:03:39;;;;;;;;;76.75;60.00;;;;;;;;5068852;28;11507;-70
2023/04/18 08:06:07;;;;;;;;;71.50;56.50;;;;;;;;5056232;28;11515;-73
2023/04/18 08:08:34;;;;;;;;;70.75;54.75;;;;;;;;5068638;28;11518;-73
2023/04/18 08:11:07;;;;;;;;;72.00;56.75;;;;;;;;5073008;28;11497;-74
2023/04/18 08:13:34;;;;;;;;;70.25;56.00;;;;;;;;5074606;28;12282;-80
2023/04/18 08:16:02;;;;;;;;;70.25;56.75;;;;;;;;5084373;28;11476;-71
2023/04/18 08:18:31;;;;;;;;;59.50;50.25;;;;;;;;5082044;28;11640;-75
2023/04/18 08:20:58;;;;;;;;;69.50;55.00;;;;;;;;5085300;28;11626;-70
2023/04/18 08:23:25;;;;;;;;;67.00;54.25;;;;;;;;5083261;28;11498;-69
2023/04/18 08:25:52;;;;;;;;;77.50;60.50;;;;;;;;5084771;28;11500;-78
2023/04/18 08:28:20;;;;;;;;;76.75;58.25;;;;;;;;5083759;28;11495;-79
2023/04/18 08:30:49;;;;;;;;;69.00;54.25;;;;;;;;5074404;28;11457;-71
2023/04/18 08:33:16;;;;;;;;;66.50;53.25;;;;;;;;5083410;28;11499;-71
2023/04/18 08:35:46;;;;;;;;;61.25;49.75;;;;;;;;5086131;28;11494;-76
2023/04/18 08:38:13;;;;;;;;;65.00;52.00;;;;;;;;5082887;28;12287;-79
2023/04/18 08:40:40;;;;;;;;;68.50;55.00;;;;;;;;5085938;28;11523;-78
2023/04/18 08:43:11;;;;;;;;;61.25;51.25;;;;;;;;5083029;28;11521;-73
2023/04/18 08:45:39;;;;;;;;;73.00;55.50;;;;;;;;5085975;28;11509;-75
2023/04/18 08:48:07;;;;;;;;;68.00;52.50;;;;;;;;5082482;28;11438;-73
2023/04/18 08:50:35;;;;;;;;;67.00;53.25;;;;;;;;5085192;28;11534;-76
2023/04/18 08:53:03;;;;;;;;;68.50;55.75;;;;;;;;5064140;28;11428;-71
2023/04/18 08:55:32;;;;;;;;;62.75;51.75;;;;;;;;5061929;28;11509;-74
2023/04/18 08:58:00;;;;;;;;;62.25;51.75;;;;;;;;5069517;28;11550;-80
2023/04/18 09:00:28;;;;;;;;;67.00;51.50;;;;;;;;5070230;28;11358;-80
2023/04/18 09:02:56;;;;;;;;;67.50;54.25;;;;;;;;5071327;28;11438;-74
2023/04/18 09:05:25;;;;;;;;;69.00;53.25;;;;;;;;5071848;28;11534;-76
2023/04/18 09:07:54;;;;;;;;;66.75;54.25;;;;;;;;5080654;28;12017;-77
2023/04/18 09:10:28;;;;;;;;;70.00;55.00;;;;;;;;5081020;28;11473;-76
2023/04/18 09:12:56;;;;;;;;;63.50;51.50;;;;;;;;5084154;28;11455;-75
2023/04/18 09:15:25;;;;;;;;;64.25;51.00;;;;;;;;5085746;28;11574;-77
2023/04/18 09:17:55;;;;;;;;;67.25;52.00;;;;;;;;5077218;28;11459;-79
2023/04/18 09:20:36;;;;;;;;;65.50;51.25;;;;;;;;5067614;28;11637;-77
2023/04/18 09:23:09;;;;;;;;;67.75;53.00;;;;;;;;5067429;28;12295;-72
2023/04/18 09:25:43;;;;;;;;;70.00;54.75;;;;;;;;5055926;28;11496;-75
2023/04/18 09:28:23;;;;;;;;;66.00;52.00;;;;;;;;5067194;28;11198;-71
2023/04/18 09:30:51;;;;;;;;;66.50;53.00;;;;;;;;5067215;28;12298;-76
2023/04/18 09:33:26;;;;;;;;;62.75;51.25;;;;;;;;5067585;28;11475;-72
2023/04/18 09:35:59;;;;;;;;;61.25;48.50;;;;;;;;5067718;28;11312;-70
2023/04/18 09:38:39;;;;;;;;;64.25;52.25;;;;;;;;5066937;28;11795;-72
2023/04/18 09:41:12;;;;;;;;;62.25;50.25;;;;;;;;5067278;28;10987;-76
2023/04/18 09:43:39;;;;;;;;;62.00;50.75;;;;;;;;5066874;28;11775;-71
2023/04/18 09:46:07;;;;;;;;;61.25;50.50;;;;;;;;5066796;28;10640;-72
2023/04/18 09:48:34;;;;;;;;;66.50;54.50;;;;;;;;5066609;28;10877;-74
2023/04/18 09:51:05;;;;;;;;;61.50;50.50;;;;;;;;5066243;28;10786;-71
2023/04/18 09:53:34;;;;;;;;;56.75;46.75;;;;;;;;5067428;28;10943;-73
2023/04/18 09:56:01;;;;;;;;;57.25;46.75;;;;;;;;5068188;28;10702;-77
2023/04/18 09:58:32;;;;;;;;;55.25;46.75;;;;;;;;5067465;28;10577;-71
2023/04/18 10:01:00;;;;;;;;;62.00;51.00;;;;;;;;5066722;28;11237;-72
2023/04/18 10:03:33;;;;;;;;;60.25;50.00;;;;;;;;5055169;28;10496;-71
2023/04/18 10:06:00;;;;;;;;;62.50;52.00;;;;;;;;5066990;28;10475;-73
2023/04/18 10:08:28;;;;;;;;;63.25;52.50;;;;;;;;5067432;28;10524;-82
2023/04/18 10:10:57;;;;;;;;;61.00;50.00;;;;;;;;5067652;28;11284;-74
2023/04/18 10:13:26;;;;;;;;;61.25;50.25;;;;;;;;5066689;28;10315;-76
2023/04/18 10:15:55;;;;;;;;;61.50;50.25;;;;;;;;5066814;28;10656;-74
2023/04/18 10:18:24;;;;;;;;;64.50;50.50;;;;;;;;5066875;28;10392;-74
2023/04/18 10:20:51;;;;;;;;;56.00;47.00;;;;;;;;5067264;28;10412;-71
2023/04/18 10:23:34;;;;;;;;;65.00;50.50;;;;;;;;5066409;28;10343;-76
2023/04/18 10:26:02;;;;;;;;;61.50;51.00;;;;;;;;5067136;28;10322;-73
2023/04/18 10:28:51;;;;;;;;;63.25;52.25;;;;;;;;5066689;28;10303;-74
2023/04/18 10:31:21;;;;;;;;;61.75;48.75;;;;;;;;5066480;28;10151;-75
2023/04/18 10:33:49;;;;;;;;;59.50;49.00;;;;;;;;5066866;28;10098;-73
2023/04/18 10:36:19;;;;;;;;;58.50;47.25;;;;;;;;5066646;28;9937;-72
2023/04/18 10:38:50;;;;;;;;;48.25;42.00;;;;;;;;5067211;28;9936;-72
2023/04/18 10:41:21;;;;;;;;;57.75;47.00;;;;;;;;5066521;28;10140;-74
2023/04/18 10:44:18;;;;;;;;;59.50;48.25;;;;;;;;5067291;28;9998;-75
2023/04/18 10:47:23;;;;;;;;;55.75;47.00;;;;;;;;5054932;28;9783;-73
2023/04/18 10:49:57;;;;;;;;;56.00;45.00;;;;;;;;5071232;28;9741;-75
2023/04/18 10:52:25;;;;;;;;;57.00;45.50;;;;;;;;5067945;28;9619;-78
2023/04/18 10:54:54;;;;;;;;;59.25;47.00;;;;;;;;5068596;28;9547;-75
2023/04/18 10:57:22;;;;;;;;;53.33;44.00;;;;;;;;5073038;28;9500;-72
2023/04/18 10:59:50;;;;;;;;;55.00;45.00;;;;;;;;5081575;28;9406;-77
2023/04/18 11:02:25;;;;;;;;;54.00;44.67;;;;;;;;5081279;28;9242;-71
2023/04/18 11:04:53;;;;;;;;;51.00;42.00;;;;;;;;5070346;28;9318;-70
2023/04/18 11:07:31;;;;;;;;;48.00;39.33;;;;;;;;5081635;28;9196;-71
2023/04/18 11:09:58;;;;;;;;;49.33;42.00;;;;;;;;5084619;28;9171;-71
2023/04/18 11:12:25;;;;;;;;;48.00;41.33;;;;;;;;5078152;28;9217;-71
2023/04/18 11:14:53;;;;;;;;;50.00;41.33;;;;;;;;5082556;28;9196;-71
2023/04/18 11:17:23;;;;;;;;;42.00;37.33;;;;;;;;5077816;28;9836;-72
2023/04/18 11:19:50;;;;;;;;;45.00;39.67;;;;;;;;5084172;28;9163;-73
2023/04/18 11:22:18;;;;;;;;;50.33;40.67;;;;;;;;5077815;28;9092;-71
2023/04/18 11:24:45;;;;;;;;;40.33;37.00;;;;;;;;5083820;28;9151;-70
2023/04/18 11:27:13;;;;;;;;;44.75;37.50;;;;;;;;5073337;28;8958;-73
2023/04/18 11:29:40;;;;;;;;;47.25;38.50;;;;;;;;5083114;28;9025;-73
2023/04/18 11:32:09;;;;;;;;;42.67;38.00;;;;;;;;5076732;28;8794;-70
2023/04/18 11:34:37;;;;;;;;;41.33;36.67;;;;;;;;5077405;28;8990;-73
2023/04/18 11:37:07;;;;;;;;;36.67;34.67;;;;;;;;5077525;28;9058;-71
2023/04/18 11:39:35;;;;;;;;;42.00;36.00;;;;;;;;5077538;28;9133;-69
2023/04/18 11:42:03;;;;;;;;;48.00;40.33;;;;;;;;5073190;28;8985;-74
2023/04/18 11:44:30;;;;;;;;;41.67;35.00;;;;;;;;5080640;28;9511;-73
2023/04/18 11:46:57;;;;;;;;;45.67;38.00;;;;;;;;5080697;28;9215;-72
2023/04/18 11:49:26;;;;;;;;;37.67;34.67;;;;;;;;5080048;28;9167;-70
2023/04/18 11:51:54;;;;;;;;;41.00;34.33;;;;;;;;5076392;28;9332;-70
2023/04/18 11:54:39;;;;;;;;;34.67;33.33;;;;;;;;5068244;28;9093;-70
2023/04/18 11:57:07;;;;;;;;;41.33;36.33;;;;;;;;5070445;28;9265;-73
2023/04/18 11:59:35;;;;;;;;;41.67;34.67;;;;;;;;5069144;28;9770;-73
2023/04/18 12:02:03;;;;;;;;;40.33;36.33;;;;;;;;5068969;28;9068;-78
2023/04/18 12:04:30;;;;;;;;;40.75;33.50;;;;;;;;5069472;28;9095;-74
2023/04/18 12:06:59;;;;;;;;;38.00;34.33;;;;;;;;5069402;28;8872;-71
2023/04/18 12:09:26;;;;;;;;;37.00;34.00;;;;;;;;5057661;28;9770;-74
2023/04/18 12:11:58;;;;;;;;;41.67;34.67;;;;;;;;5070807;28;9058;-72
2023/04/18 12:14:25;;;;;;;;;33.75;31.25;;;;;;;;5069772;28;8944;-75
2023/04/18 12:16:52;;;;;;;;;39.00;34.33;;;;;;;;5070819;28;8891;-71
2023/04/18 12:19:20;;;;;;;;;37.67;34.00;;;;;;;;5070204;28;9281;-71
2023/04/18 12:22:00;;;;;;;;;30.75;27.25;;;;;;;;5068291;28;8973;-73
2023/04/18 12:24:28;;;;;;;;;34.75;31.00;;;;;;;;5069188;28;8834;-75
2023/04/18 12:26:56;;;;;;;;;30.00;30.00;;;;;;;;5065729;28;8845;-73
2023/04/18 12:29:23;;;;;;;;;34.75;30.00;;;;;;;;5050230;28;8933;-71
2023/04/18 12:31:51;;;;;;;;;32.00;29.75;;;;;;;;5056688;28;8918;-77
2023/04/18 12:34:18;;;;;;;;;29.50;28.75;;;;;;;;5070207;28;8850;-77
2023/04/18 12:36:45;;;;;;;;;28.75;26.25;;;;;;;;5070106;28;8842;-74
2023/04/18 12:39:14;;;;;;;;;27.00;26.75;;;;;;;;5056946;28;8853;-72
2023/04/18 12:41:41;;;;;;;;;28.75;28.00;;;;;;;;5068176;28;9007;-75
2023/04/18 12:44:09;;;;;;;;;33.00;30.00;;;;;;;;5075234;28;8932;-78
2023/04/18 12:46:36;;;;;;;;;33.00;31.25;;;;;;;;5076729;28;8862;-70
2023/04/18 12:49:04;;;;;;;;;28.50;27.00;;;;;;;;5075856;28;8830;-77
2023/04/18 12:51:31;;;;;;;;;28.50;28.00;;;;;;;;5077768;28;8903;-78
2023/04/18 12:53:58;;;;;;;;;27.50;26.00;;;;;;;;5067347;28;8841;-74
2023/04/18 12:56:27;;;;;;;;;31.25;29.50;;;;;;;;5055560;28;8846;-72
2023/04/18 12:58:56;;;;;;;;;35.75;31.50;;;;;;;;5067471;28;8837;-73
2023/04/18 13:01:24;;;;;;;;;26.00;25.00;;;;;;;;5074504;28;8807;-72
2023/04/18 13:03:51;;;;;;;;;28.50;28.50;;;;;;;;5073959;28;8917;-70
2023/04/18 13:06:18;;;;;;;;;29.75;29.25;;;;;;;;5063019;28;8962;-72
2023/04/18 13:08:46;;;;;;;;;27.75;27.25;;;;;;;;5067797;28;8993;-71
2023/04/18 13:11:13;;;;;;;;;29.50;28.50;;;;;;;;5067868;28;8865;-72
2023/04/18 13:13:42;;;;;;;;;29.75;28.00;;;;;;;;5068065;28;9625;-74
2023/04/18 13:16:09;;;;;;;;;21.25;21.25;;;;;;;;5068995;28;8970;-76
2023/04/18 13:18:36;;;;;;;;;27.00;26.75;;;;;;;;5068412;28;8900;-74
2023/04/18 13:21:03;;;;;;;;;27.75;27.00;;;;;;;;5068308;28;8854;-73
2023/04/18 13:23:31;;;;;;;;;29.25;29.00;;;;;;;;5067678;28;9522;-71
2023/04/18 13:25:58;;;;;;;;;31.50;30.75;;;;;;;;5066957;28;8980;-77
2023/04/18 13:28:25;;;;;;;;;27.75;27.00;;;;;;;;5066672;28;8853;-69
2023/04/18 13:30:54;;;;;;;;;27.50;27.00;;;;;;;;5074212;28;8868;-79
2023/04/18 13:33:21;;;;;;;;;33.25;31.00;;;;;;;;5067592;28;8873;-71
2023/04/18 13:35:48;;;;;;;;;392.20;310.00;;;;;;;;5067094;28;8834;-71
2023/04/18 13:38:16;;;;;;;;;30.50;30.50;;;;;;;;5066841;28;8989;-75
2023/04/18 13:40:43;;;;;;;;;24.50;24.50;;;;;;;;5066907;28;8834;-80
2023/04/18 13:43:11;;;;;;;;;27.00;27.00;;;;;;;;5067201;28;8864;-77
2023/04/18 13:45:39;;;;;;;;;28.50;28.50;;;;;;;;5067936;28;8858;-78
2023/04/18 13:48:07;;;;;;;;;25.75;24.50;;;;;;;;5067437;28;8862;-70
2023/04/18 13:50:34;;;;;;;;;30.75;29.75;;;;;;;;5067717;28;8850;-69
2023/04/18 13:53:02;;;;;;;;;29.25;27.25;;;;;;;;5067404;28;8844;-73
2023/04/18 13:55:29;;;;;;;;;26.00;26.00;;;;;;;;5067832;28;8846;-75
2023/04/18 13:57:56;;;;;;;;;28.75;26.75;;;;;;;;5068560;28;9038;-81
2023/04/18 14:00:23;;;;;;;;;31.25;29.25;;;;;;;;5067974;28;8853;-71
2023/04/18 14:02:50;;;;;;;;;38.00;32.00;;;;;;;;5067579;28;8850;-72
2023/04/18 14:05:19;;;;;;;;;30.50;30.50;;;;;;;;5056084;28;8836;-69
2023/04/18 14:07:47;;;;;;;;;29.75;28.50;;;;;;;;5056404;28;8850;-73
2023/04/18 14:10:14;;;;;;;;;33.25;31.25;;;;;;;;5068416;28;9786;-77
2023/04/18 14:12:41;;;;;;;;;23.25;23.25;;;;;;;;5067831;28;9635;-70
2023/04/18 14:15:10;;;;;;;;;22.50;22.50;;;;;;;;5057266;28;8844;-76
2023/04/18 14:17:37;;;;;;;;;22.00;22.00;;;;;;;;5078978;28;8849;-76
2023/04/18 14:20:05;;;;;;;;;24.50;21.00;;;;;;;;5056151;28;8872;-73
2023/04/18 14:22:34;;;;;;;;;26.75;25.50;;;;;;;;5067229;28;8857;-72
2023/04/18 14:25:01;;;;;;;;;17.25;16.25;;;;;;;;5069481;28;8842;-75
2023/04/18 14:27:28;;;;;;;;;20.25;18.75;;;;;;;;5067857;28;8860;-78